sensor_id;sensor_type;location;lat;lon;timestamp;P1;durP1;ratioP1;P2;durP2;ratioP2
4808;SDS011;2418;49.930;8.606;2023-03-11T00:01:01;1.60;;;0.98;;
4808;SDS011;2418;49.930;8.606;2023-03-11T00:03:27;1.10;;;1.10;;
4808;SDS011;2418;49.930;8.606;2023-03-11T00:05:53;1.00;;;1.00;;
4808;SDS011;2418;49.930;8.606;2023-03-11T00:08:21;1.10;;;1.00;;
4808;SDS011;2418;49.930;8.606;2023-03-11T00:10:50;0.70;;;0.70;;
4808;SDS011;2418;49.930;8.606;2023-03-11T00:13:16;1.50;;;0.80;;
4808;SDS011;2418;49.930;8.606;2023-03-11T00:15:43;0.70;;;0.70;;
4808;SDS011;2418;49.930;8.606;2023-03-11T00:18:09;0.90;;;0.60;;
4808;SDS011;2418;49.930;8.606;2023-03-11T00:20:36;3.30;;;0.50;;
4808;SDS011;2418;49.930;8.606;2023-03-11T00:23:03;0.50;;;0.50;;
4808;SDS011;2418;49.930;8.606;2023-03-11T00:25:30;0.60;;;0.60;;
4808;SDS011;2418;49.930;8.606;2023-03-11T00:27:57;0.70;;;0.70;;
4808;SDS011;2418;49.930;8.606;2023-03-11T00:30:24;0.60;;;0.60;;
4808;SDS011;2418;49.930;8.606;2023-03-11T00:32:50;0.40;;;0.40;;
4808;SDS011;2418;49.930;8.606;2023-03-11T00:35:21;1.00;;;1.00;;
4808;SDS011;2418;49.930;8.606;2023-03-11T00:37:47;2.00;;;0.60;;
4808;SDS011;2418;49.930;8.606;2023-03-11T00:40:14;0.77;;;0.77;;
4808;SDS011;2418;49.930;8.606;2023-03-11T00:42:40;0.60;;;0.60;;
4808;SDS011;2418;49.930;8.606;2023-03-11T00:45:06;2.00;;;0.77;;
4808;SDS011;2418;49.930;8.606;2023-03-11T00:47:33;1.50;;;0.50;;
4808;SDS011;2418;49.930;8.606;2023-03-11T00:49:59;0.80;;;0.55;;
4808;SDS011;2418;49.930;8.606;2023-03-11T00:52:25;0.57;;;0.50;;
4808;SDS011;2418;49.930;8.606;2023-03-11T00:54:52;1.92;;;1.00;;
4808;SDS011;2418;49.930;8.606;2023-03-11T00:57:18;1.13;;;0.70;;
4808;SDS011;2418;49.930;8.606;2023-03-11T00:59:44;0.40;;;0.40;;
4808;SDS011;2418;49.930;8.606;2023-03-11T01:02:10;0.70;;;0.70;;
4808;SDS011;2418;49.930;8.606;2023-03-11T01:04:36;1.60;;;0.80;;
4808;SDS011;2418;49.930;8.606;2023-03-11T01:07:02;3.95;;;0.90;;
4808;SDS011;2418;49.930;8.606;2023-03-11T01:09:28;1.20;;;0.60;;
4808;SDS011;2418;49.930;8.606;2023-03-11T01:11:54;1.00;;;0.50;;
4808;SDS011;2418;49.930;8.606;2023-03-11T01:14:20;0.50;;;0.50;;
4808;SDS011;2418;49.930;8.606;2023-03-11T01:16:47;0.70;;;0.50;;
4808;SDS011;2418;49.930;8.606;2023-03-11T01:19:12;4.40;;;1.10;;
4808;SDS011;2418;49.930;8.606;2023-03-11T01:21:38;0.57;;;0.57;;
4808;SDS011;2418;49.930;8.606;2023-03-11T01:24:04;0.80;;;0.70;;
4808;SDS011;2418;49.930;8.606;2023-03-11T01:26:31;1.00;;;0.80;;
4808;SDS011;2418;49.930;8.606;2023-03-11T01:28:57;1.90;;;0.50;;
4808;SDS011;2418;49.930;8.606;2023-03-11T01:31:22;0.90;;;0.52;;
4808;SDS011;2418;49.930;8.606;2023-03-11T01:33:48;2.70;;;0.70;;
4808;SDS011;2418;49.930;8.606;2023-03-11T01:36:14;1.10;;;0.60;;
4808;SDS011;2418;49.930;8.606;2023-03-11T01:38:40;2.25;;;0.93;;
4808;SDS011;2418;49.930;8.606;2023-03-11T01:41:06;4.53;;;0.88;;
4808;SDS011;2418;49.930;8.606;2023-03-11T01:46:26;5.13;;;0.60;;
4808;SDS011;2418;49.930;8.606;2023-03-11T01:48:55;2.08;;;0.90;;
4808;SDS011;2418;49.930;8.606;2023-03-11T01:51:26;1.40;;;0.70;;
4808;SDS011;2418;49.930;8.606;2023-03-11T01:53:53;2.15;;;0.80;;
4808;SDS011;2418;49.930;8.606;2023-03-11T01:56:20;1.00;;;0.50;;
4808;SDS011;2418;49.930;8.606;2023-03-11T01:58:47;2.30;;;0.70;;
4808;SDS011;2418;49.930;8.606;2023-03-11T02:01:16;2.25;;;0.90;;
4808;SDS011;2418;49.930;8.606;2023-03-11T02:03:42;2.60;;;0.70;;
4808;SDS011;2418;49.930;8.606;2023-03-11T02:06:10;0.60;;;0.50;;
4808;SDS011;2418;49.930;8.606;2023-03-11T02:08:37;0.45;;;0.45;;
4808;SDS011;2418;49.930;8.606;2023-03-11T02:11:04;0.70;;;0.60;;
4808;SDS011;2418;49.930;8.606;2023-03-11T02:13:31;2.95;;;0.77;;
4808;SDS011;2418;49.930;8.606;2023-03-11T02:15:59;3.40;;;0.70;;
4808;SDS011;2418;49.930;8.606;2023-03-11T02:18:25;4.10;;;0.80;;
4808;SDS011;2418;49.930;8.606;2023-03-11T02:23:17;0.90;;;0.70;;
4808;SDS011;2418;49.930;8.606;2023-03-11T02:28:12;3.70;;;1.00;;
4808;SDS011;2418;49.930;8.606;2023-03-11T02:30:40;6.00;;;1.27;;
4808;SDS011;2418;49.930;8.606;2023-03-11T02:33:06;3.97;;;0.98;;
4808;SDS011;2418;49.930;8.606;2023-03-11T02:35:32;3.05;;;0.77;;
4808;SDS011;2418;49.930;8.606;2023-03-11T02:37:58;3.75;;;1.00;;
4808;SDS011;2418;49.930;8.606;2023-03-11T02:40:35;3.85;;;1.17;;
4808;SDS011;2418;49.930;8.606;2023-03-11T02:43:04;3.70;;;0.90;;
4808;SDS011;2418;49.930;8.606;2023-03-11T02:45:34;1.10;;;0.93;;
4808;SDS011;2418;49.930;8.606;2023-03-11T02:48:01;0.68;;;0.57;;
4808;SDS011;2418;49.930;8.606;2023-03-11T02:50:27;6.80;;;1.40;;
4808;SDS011;2418;49.930;8.606;2023-03-11T02:52:54;2.58;;;0.90;;
4808;SDS011;2418;49.930;8.606;2023-03-11T02:55:20;3.13;;;0.80;;
4808;SDS011;2418;49.930;8.606;2023-03-11T02:57:46;3.30;;;1.00;;
4808;SDS011;2418;49.930;8.606;2023-03-11T03:00:13;4.05;;;0.88;;
4808;SDS011;2418;49.930;8.606;2023-03-11T03:02:41;3.40;;;1.30;;
4808;SDS011;2418;49.930;8.606;2023-03-11T03:05:07;6.00;;;1.30;;
4808;SDS011;2418;49.930;8.606;2023-03-11T03:07:33;3.70;;;1.40;;
4808;SDS011;2418;49.930;8.606;2023-03-11T03:09:59;3.53;;;1.20;;
4808;SDS011;2418;49.930;8.606;2023-03-11T03:12:25;2.40;;;1.40;;
4808;SDS011;2418;49.930;8.606;2023-03-11T03:14:51;4.00;;;0.90;;
4808;SDS011;2418;49.930;8.606;2023-03-11T03:17:18;4.65;;;1.10;;
4808;SDS011;2418;49.930;8.606;2023-03-11T03:19:44;3.90;;;0.80;;
4808;SDS011;2418;49.930;8.606;2023-03-11T03:22:10;1.80;;;0.80;;
4808;SDS011;2418;49.930;8.606;2023-03-11T03:24:36;4.90;;;1.00;;
4808;SDS011;2418;49.930;8.606;2023-03-11T03:27:02;4.10;;;1.20;;
4808;SDS011;2418;49.930;8.606;2023-03-11T03:29:28;3.28;;;1.10;;
4808;SDS011;2418;49.930;8.606;2023-03-11T03:31:54;4.45;;;1.25;;
4808;SDS011;2418;49.930;8.606;2023-03-11T03:34:20;1.23;;;1.07;;
4808;SDS011;2418;49.930;8.606;2023-03-11T03:36:46;1.85;;;0.90;;
4808;SDS011;2418;49.930;8.606;2023-03-11T03:39:12;3.47;;;0.80;;
4808;SDS011;2418;49.930;8.606;2023-03-11T03:41:38;3.22;;;1.10;;
4808;SDS011;2418;49.930;8.606;2023-03-11T03:44:04;4.25;;;0.95;;
4808;SDS011;2418;49.930;8.606;2023-03-11T03:46:30;1.30;;;1.20;;
4808;SDS011;2418;49.930;8.606;2023-03-11T03:48:56;1.13;;;1.00;;
4808;SDS011;2418;49.930;8.606;2023-03-11T03:51:22;3.25;;;1.05;;
4808;SDS011;2418;49.930;8.606;2023-03-11T03:53:48;2.42;;;1.15;;
4808;SDS011;2418;49.930;8.606;2023-03-11T03:56:15;3.45;;;1.20;;
4808;SDS011;2418;49.930;8.606;2023-03-11T03:58:41;4.07;;;1.50;;
4808;SDS011;2418;49.930;8.606;2023-03-11T04:01:08;1.85;;;1.23;;
4808;SDS011;2418;49.930;8.606;2023-03-11T04:03:35;2.20;;;1.10;;
4808;SDS011;2418;49.930;8.606;2023-03-11T04:08:35;2.80;;;1.10;;
4808;SDS011;2418;49.930;8.606;2023-03-11T04:11:04;1.30;;;1.20;;
4808;SDS011;2418;49.930;8.606;2023-03-11T04:13:30;3.50;;;1.10;;
4808;SDS011;2418;49.930;8.606;2023-03-11T04:15:56;1.70;;;0.93;;
4808;SDS011;2418;49.930;8.606;2023-03-11T04:18:27;2.55;;;1.50;;
4808;SDS011;2418;49.930;8.606;2023-03-11T04:20:54;1.03;;;1.03;;
4808;SDS011;2418;49.930;8.606;2023-03-11T04:23:20;2.45;;;1.30;;
4808;SDS011;2418;49.930;8.606;2023-03-11T04:25:46;2.60;;;1.27;;
4808;SDS011;2418;49.930;8.606;2023-03-11T04:28:12;2.38;;;1.20;;
4808;SDS011;2418;49.930;8.606;2023-03-11T04:30:38;7.28;;;1.45;;
4808;SDS011;2418;49.930;8.606;2023-03-11T04:33:04;3.63;;;1.35;;
4808;SDS011;2418;49.930;8.606;2023-03-11T04:35:30;3.10;;;1.25;;
4808;SDS011;2418;49.930;8.606;2023-03-11T04:37:56;2.75;;;1.35;;
4808;SDS011;2418;49.930;8.606;2023-03-11T04:40:22;2.72;;;2.00;;
4808;SDS011;2418;49.930;8.606;2023-03-11T04:42:48;7.65;;;1.50;;
4808;SDS011;2418;49.930;8.606;2023-03-11T04:45:14;3.28;;;1.50;;
4808;SDS011;2418;49.930;8.606;2023-03-11T04:47:42;6.88;;;1.50;;
4808;SDS011;2418;49.930;8.606;2023-03-11T04:50:08;3.03;;;1.50;;
4808;SDS011;2418;49.930;8.606;2023-03-11T04:52:34;1.70;;;1.10;;
4808;SDS011;2418;49.930;8.606;2023-03-11T04:55:00;7.32;;;1.58;;
4808;SDS011;2418;49.930;8.606;2023-03-11T04:57:26;5.00;;;1.73;;
4808;SDS011;2418;49.930;8.606;2023-03-11T04:59:52;2.80;;;1.20;;
4808;SDS011;2418;49.930;8.606;2023-03-11T05:02:18;8.73;;;2.55;;
4808;SDS011;2418;49.930;8.606;2023-03-11T05:04:44;3.47;;;1.40;;
4808;SDS011;2418;49.930;8.606;2023-03-11T05:07:10;3.22;;;1.20;;
4808;SDS011;2418;49.930;8.606;2023-03-11T05:09:36;6.00;;;1.70;;
4808;SDS011;2418;49.930;8.606;2023-03-11T05:12:02;3.05;;;1.50;;
4808;SDS011;2418;49.930;8.606;2023-03-11T05:14:28;4.95;;;1.60;;
4808;SDS011;2418;49.930;8.606;2023-03-11T05:16:55;3.85;;;1.67;;
4808;SDS011;2418;49.930;8.606;2023-03-11T05:19:21;3.20;;;1.50;;
4808;SDS011;2418;49.930;8.606;2023-03-11T05:21:58;1.80;;;1.70;;
4808;SDS011;2418;49.930;8.606;2023-03-11T05:24:26;4.65;;;1.95;;
4808;SDS011;2418;49.930;8.606;2023-03-11T05:26:52;1.50;;;1.40;;
4808;SDS011;2418;49.930;8.606;2023-03-11T05:29:18;2.17;;;1.48;;
4808;SDS011;2418;49.930;8.606;2023-03-11T05:31:45;3.85;;;1.63;;
4808;SDS011;2418;49.930;8.606;2023-03-11T05:34:12;3.08;;;1.30;;
4808;SDS011;2418;49.930;8.606;2023-03-11T05:36:38;2.75;;;1.30;;
4808;SDS011;2418;49.930;8.606;2023-03-11T05:39:04;8.20;;;1.80;;
4808;SDS011;2418;49.930;8.606;2023-03-11T05:41:31;5.63;;;1.90;;
4808;SDS011;2418;49.930;8.606;2023-03-11T05:43:57;4.78;;;1.60;;
4808;SDS011;2418;49.930;8.606;2023-03-11T05:46:25;3.42;;;1.65;;
4808;SDS011;2418;49.930;8.606;2023-03-11T05:48:51;13.77;;;1.90;;
4808;SDS011;2418;49.930;8.606;2023-03-11T05:51:17;7.45;;;2.30;;
4808;SDS011;2418;49.930;8.606;2023-03-11T05:53:44;2.92;;;2.45;;
4808;SDS011;2418;49.930;8.606;2023-03-11T05:56:13;8.55;;;1.70;;
4808;SDS011;2418;49.930;8.606;2023-03-11T05:58:39;5.00;;;2.08;;
4808;SDS011;2418;49.930;8.606;2023-03-11T06:01:09;3.80;;;2.20;;
4808;SDS011;2418;49.930;8.606;2023-03-11T06:03:36;5.63;;;2.15;;
4808;SDS011;2418;49.930;8.606;2023-03-11T06:06:03;10.73;;;2.40;;
4808;SDS011;2418;49.930;8.606;2023-03-11T06:08:29;1.75;;;1.70;;
4808;SDS011;2418;49.930;8.606;2023-03-11T06:11:06;5.50;;;2.00;;
4808;SDS011;2418;49.930;8.606;2023-03-11T06:13:32;5.40;;;1.70;;
4808;SDS011;2418;49.930;8.606;2023-03-11T06:15:58;7.28;;;2.30;;
4808;SDS011;2418;49.930;8.606;2023-03-11T06:18:24;3.30;;;2.53;;
4808;SDS011;2418;49.930;8.606;2023-03-11T06:20:51;5.20;;;2.30;;
4808;SDS011;2418;49.930;8.606;2023-03-11T06:23:18;8.15;;;1.70;;
4808;SDS011;2418;49.930;8.606;2023-03-11T06:25:54;5.50;;;1.92;;
4808;SDS011;2418;49.930;8.606;2023-03-11T06:28:20;2.30;;;1.90;;
4808;SDS011;2418;49.930;8.606;2023-03-11T06:30:46;6.40;;;2.50;;
4808;SDS011;2418;49.930;8.606;2023-03-11T06:33:13;4.35;;;2.08;;
4808;SDS011;2418;49.930;8.606;2023-03-11T06:35:40;5.88;;;3.10;;
4808;SDS011;2418;49.930;8.606;2023-03-11T06:38:06;8.55;;;3.55;;
4808;SDS011;2418;49.930;8.606;2023-03-11T06:40:32;10.98;;;4.00;;
4808;SDS011;2418;49.930;8.606;2023-03-11T06:42:59;8.82;;;3.80;;
4808;SDS011;2418;49.930;8.606;2023-03-11T06:45:25;10.67;;;3.30;;
4808;SDS011;2418;49.930;8.606;2023-03-11T06:47:51;6.00;;;2.78;;
4808;SDS011;2418;49.930;8.606;2023-03-11T06:50:17;6.97;;;3.00;;
4808;SDS011;2418;49.930;8.606;2023-03-11T06:52:44;4.18;;;2.70;;
4808;SDS011;2418;49.930;8.606;2023-03-11T06:55:11;6.75;;;3.20;;
4808;SDS011;2418;49.930;8.606;2023-03-11T06:57:37;7.10;;;3.00;;
4808;SDS011;2418;49.930;8.606;2023-03-11T07:00:03;9.52;;;3.03;;
4808;SDS011;2418;49.930;8.606;2023-03-11T07:02:32;11.07;;;3.50;;
4808;SDS011;2418;49.930;8.606;2023-03-11T07:04:58;5.95;;;2.97;;
4808;SDS011;2418;49.930;8.606;2023-03-11T07:07:25;6.22;;;3.00;;
4808;SDS011;2418;49.930;8.606;2023-03-11T07:09:53;3.80;;;2.70;;
4808;SDS011;2418;49.930;8.606;2023-03-11T07:12:19;16.45;;;3.00;;
4808;SDS011;2418;49.930;8.606;2023-03-11T07:14:46;7.55;;;2.58;;
4808;SDS011;2418;49.930;8.606;2023-03-11T07:17:12;6.90;;;2.63;;
4808;SDS011;2418;49.930;8.606;2023-03-11T07:19:38;4.13;;;2.05;;
4808;SDS011;2418;49.930;8.606;2023-03-11T07:22:05;11.77;;;2.78;;
4808;SDS011;2418;49.930;8.606;2023-03-11T07:24:30;5.75;;;2.30;;
4808;SDS011;2418;49.930;8.606;2023-03-11T07:26:56;3.43;;;2.00;;
4808;SDS011;2418;49.930;8.606;2023-03-11T07:29:22;5.15;;;2.20;;
4808;SDS011;2418;49.930;8.606;2023-03-11T07:31:48;8.75;;;2.28;;
4808;SDS011;2418;49.930;8.606;2023-03-11T07:34:15;5.38;;;2.50;;
4808;SDS011;2418;49.930;8.606;2023-03-11T07:36:41;1.70;;;1.50;;
4808;SDS011;2418;49.930;8.606;2023-03-11T07:39:07;2.72;;;1.77;;
4808;SDS011;2418;49.930;8.606;2023-03-11T07:41:34;2.70;;;1.67;;
4808;SDS011;2418;49.930;8.606;2023-03-11T07:44:01;5.28;;;2.00;;
4808;SDS011;2418;49.930;8.606;2023-03-11T07:46:28;3.67;;;1.35;;
4808;SDS011;2418;49.930;8.606;2023-03-11T07:48:54;3.90;;;1.23;;
4808;SDS011;2418;49.930;8.606;2023-03-11T07:51:24;10.25;;;2.10;;
4808;SDS011;2418;49.930;8.606;2023-03-11T07:53:51;3.75;;;1.80;;
4808;SDS011;2418;49.930;8.606;2023-03-11T07:56:19;4.20;;;1.20;;
4808;SDS011;2418;49.930;8.606;2023-03-11T07:58:46;7.55;;;1.80;;
4808;SDS011;2418;49.930;8.606;2023-03-11T08:01:13;4.97;;;1.50;;
4808;SDS011;2418;49.930;8.606;2023-03-11T08:03:40;4.32;;;1.48;;
4808;SDS011;2418;49.930;8.606;2023-03-11T08:06:13;4.60;;;1.65;;
4808;SDS011;2418;49.930;8.606;2023-03-11T08:08:40;3.80;;;1.40;;
4808;SDS011;2418;49.930;8.606;2023-03-11T08:11:06;2.80;;;1.10;;
4808;SDS011;2418;49.930;8.606;2023-03-11T08:13:32;5.30;;;1.70;;
4808;SDS011;2418;49.930;8.606;2023-03-11T08:15:58;6.00;;;1.10;;
4808;SDS011;2418;49.930;8.606;2023-03-11T08:18:24;8.57;;;1.60;;
4808;SDS011;2418;49.930;8.606;2023-03-11T08:20:50;4.90;;;1.90;;
4808;SDS011;2418;49.930;8.606;2023-03-11T08:23:16;1.20;;;1.10;;
4808;SDS011;2418;49.930;8.606;2023-03-11T08:25:42;2.92;;;1.40;;
4808;SDS011;2418;49.930;8.606;2023-03-11T08:28:08;5.80;;;1.50;;
4808;SDS011;2418;49.930;8.606;2023-03-11T08:30:34;5.00;;;1.70;;
4808;SDS011;2418;49.930;8.606;2023-03-11T08:33:00;5.05;;;1.20;;
4808;SDS011;2418;49.930;8.606;2023-03-11T08:35:26;4.50;;;1.63;;
4808;SDS011;2418;49.930;8.606;2023-03-11T08:37:52;7.82;;;1.67;;
4808;SDS011;2418;49.930;8.606;2023-03-11T08:40:18;2.75;;;1.00;;
4808;SDS011;2418;49.930;8.606;2023-03-11T08:42:45;1.77;;;1.10;;
4808;SDS011;2418;49.930;8.606;2023-03-11T08:45:11;3.60;;;1.60;;
4808;SDS011;2418;49.930;8.606;2023-03-11T08:47:38;9.27;;;1.70;;
4808;SDS011;2418;49.930;8.606;2023-03-11T08:50:05;3.80;;;1.13;;
4808;SDS011;2418;49.930;8.606;2023-03-11T08:52:35;8.10;;;1.10;;
4808;SDS011;2418;49.930;8.606;2023-03-11T08:55:01;5.50;;;1.38;;
4808;SDS011;2418;49.930;8.606;2023-03-11T08:57:29;2.20;;;0.80;;
4808;SDS011;2418;49.930;8.606;2023-03-11T08:59:55;4.20;;;0.98;;
4808;SDS011;2418;49.930;8.606;2023-03-11T09:02:25;2.70;;;1.30;;
4808;SDS011;2418;49.930;8.606;2023-03-11T09:04:51;4.50;;;1.20;;
4808;SDS011;2418;49.930;8.606;2023-03-11T09:07:17;2.10;;;1.30;;
4808;SDS011;2418;49.930;8.606;2023-03-11T09:09:43;6.05;;;1.40;;
4808;SDS011;2418;49.930;8.606;2023-03-11T09:12:09;5.40;;;1.38;;
4808;SDS011;2418;49.930;8.606;2023-03-11T09:14:38;2.00;;;1.00;;
4808;SDS011;2418;49.930;8.606;2023-03-11T09:17:04;1.30;;;1.20;;
4808;SDS011;2418;49.930;8.606;2023-03-11T09:19:30;4.25;;;1.30;;
4808;SDS011;2418;49.930;8.606;2023-03-11T09:21:58;5.20;;;1.50;;
4808;SDS011;2418;49.930;8.606;2023-03-11T09:24:24;3.58;;;1.10;;
4808;SDS011;2418;49.930;8.606;2023-03-11T09:26:50;1.23;;;0.90;;
4808;SDS011;2418;49.930;8.606;2023-03-11T09:29:16;2.03;;;1.05;;
4808;SDS011;2418;49.930;8.606;2023-03-11T09:31:42;9.40;;;1.50;;
4808;SDS011;2418;49.930;8.606;2023-03-11T09:34:10;3.63;;;1.50;;
4808;SDS011;2418;49.930;8.606;2023-03-11T09:36:37;5.50;;;1.80;;
4808;SDS011;2418;49.930;8.606;2023-03-11T09:39:05;4.05;;;1.67;;
4808;SDS011;2418;49.930;8.606;2023-03-11T09:44:17;4.60;;;1.20;;
4808;SDS011;2418;49.930;8.606;2023-03-11T09:54:44;2.60;;;1.23;;
4808;SDS011;2418;49.930;8.606;2023-03-11T09:57:17;2.10;;;1.20;;
4808;SDS011;2418;49.930;8.606;2023-03-11T09:59:44;1.50;;;1.30;;
4808;SDS011;2418;49.930;8.606;2023-03-11T10:02:14;1.60;;;1.13;;
4808;SDS011;2418;49.930;8.606;2023-03-11T10:07:11;1.57;;;0.90;;
4808;SDS011;2418;49.930;8.606;2023-03-11T10:09:50;3.20;;;1.23;;
4808;SDS011;2418;49.930;8.606;2023-03-11T10:20:18;7.57;;;1.50;;
4808;SDS011;2418;49.930;8.606;2023-03-11T10:23:29;3.03;;;0.82;;
4808;SDS011;2418;49.930;8.606;2023-03-11T10:28:11;1.02;;;1.02;;
4808;SDS011;2418;49.930;8.606;2023-03-11T10:30:51;1.33;;;0.90;;
4808;SDS011;2418;49.930;8.606;2023-03-11T10:35:55;4.40;;;1.25;;
4808;SDS011;2418;49.930;8.606;2023-03-11T10:40:54;2.10;;;1.05;;
4808;SDS011;2418;49.930;8.606;2023-03-11T10:43:26;2.23;;;1.00;;
4808;SDS011;2418;49.930;8.606;2023-03-11T10:45:53;2.87;;;1.30;;
4808;SDS011;2418;49.930;8.606;2023-03-11T10:48:19;0.98;;;0.98;;
4808;SDS011;2418;49.930;8.606;2023-03-11T10:51:03;3.03;;;1.33;;
4808;SDS011;2418;49.930;8.606;2023-03-11T10:53:42;2.57;;;1.40;;
4808;SDS011;2418;49.930;8.606;2023-03-11T10:56:09;2.65;;;1.00;;
4808;SDS011;2418;49.930;8.606;2023-03-11T10:58:48;3.40;;;1.10;;
4808;SDS011;2418;49.930;8.606;2023-03-11T11:01:15;3.70;;;1.17;;
4808;SDS011;2418;49.930;8.606;2023-03-11T11:03:43;1.10;;;1.00;;
4808;SDS011;2418;49.930;8.606;2023-03-11T11:09:04;3.95;;;1.20;;
4808;SDS011;2418;49.930;8.606;2023-03-11T11:11:31;3.50;;;1.05;;
4808;SDS011;2418;49.930;8.606;2023-03-11T11:13:59;2.70;;;1.10;;
4808;SDS011;2418;49.930;8.606;2023-03-11T11:16:25;3.70;;;1.17;;
4808;SDS011;2418;49.930;8.606;2023-03-11T11:19:01;1.77;;;1.30;;
4808;SDS011;2418;49.930;8.606;2023-03-11T11:21:32;5.38;;;1.13;;
4808;SDS011;2418;49.930;8.606;2023-03-11T11:24:03;3.90;;;1.30;;
4808;SDS011;2418;49.930;8.606;2023-03-11T11:27:01;2.30;;;0.90;;
4808;SDS011;2418;49.930;8.606;2023-03-11T11:29:27;4.20;;;1.40;;
4808;SDS011;2418;49.930;8.606;2023-03-11T11:31:53;1.67;;;1.00;;
4808;SDS011;2418;49.930;8.606;2023-03-11T11:34:35;2.10;;;1.10;;
4808;SDS011;2418;49.930;8.606;2023-03-11T11:37:01;4.30;;;1.00;;
4808;SDS011;2418;49.930;8.606;2023-03-11T11:39:50;0.80;;;0.80;;
4808;SDS011;2418;49.930;8.606;2023-03-11T11:42:18;2.50;;;0.70;;
4808;SDS011;2418;49.930;8.606;2023-03-11T11:44:46;2.15;;;1.05;;
4808;SDS011;2418;49.930;8.606;2023-03-11T11:47:20;1.20;;;1.05;;
4808;SDS011;2418;49.930;8.606;2023-03-11T11:49:51;3.17;;;1.70;;
4808;SDS011;2418;49.930;8.606;2023-03-11T11:52:21;2.33;;;1.77;;
4808;SDS011;2418;49.930;8.606;2023-03-11T11:57:35;1.10;;;1.00;;
4808;SDS011;2418;49.930;8.606;2023-03-11T12:00:01;1.30;;;0.90;;
4808;SDS011;2418;49.930;8.606;2023-03-11T12:10:17;3.10;;;1.50;;
4808;SDS011;2418;49.930;8.606;2023-03-11T12:15:28;6.20;;;1.20;;
4808;SDS011;2418;49.930;8.606;2023-03-11T12:17:58;6.05;;;1.30;;
4808;SDS011;2418;49.930;8.606;2023-03-11T12:20:29;1.30;;;1.00;;
4808;SDS011;2418;49.930;8.606;2023-03-11T12:27:58;3.45;;;0.95;;
4808;SDS011;2418;49.930;8.606;2023-03-11T12:30:28;3.20;;;1.00;;
4808;SDS011;2418;49.930;8.606;2023-03-11T12:32:56;5.60;;;2.10;;
4808;SDS011;2418;49.930;8.606;2023-03-11T12:35:28;4.97;;;1.00;;
4808;SDS011;2418;49.930;8.606;2023-03-11T12:37:56;2.78;;;1.00;;
4808;SDS011;2418;49.930;8.606;2023-03-11T12:40:37;1.42;;;1.00;;
4808;SDS011;2418;49.930;8.606;2023-03-11T12:43:04;2.28;;;1.40;;
4808;SDS011;2418;49.930;8.606;2023-03-11T12:45:39;2.10;;;1.20;;
4808;SDS011;2418;49.930;8.606;2023-03-11T12:50:58;2.00;;;1.58;;
4808;SDS011;2418;49.930;8.606;2023-03-11T12:53:44;1.40;;;1.25;;
4808;SDS011;2418;49.930;8.606;2023-03-11T13:01:52;4.70;;;1.25;;
4808;SDS011;2418;49.930;8.606;2023-03-11T13:04:23;4.90;;;1.50;;
4808;SDS011;2418;49.930;8.606;2023-03-11T13:09:38;2.90;;;1.40;;
4808;SDS011;2418;49.930;8.606;2023-03-11T13:12:32;1.88;;;1.50;;
4808;SDS011;2418;49.930;8.606;2023-03-11T13:15:14;1.23;;;1.15;;
4808;SDS011;2418;49.930;8.606;2023-03-11T13:17:36;2.53;;;0.90;;
4808;SDS011;2418;49.930;8.606;2023-03-11T13:20:03;2.10;;;1.08;;
4808;SDS011;2418;49.930;8.606;2023-03-11T13:22:38;3.67;;;2.45;;
4808;SDS011;2418;49.930;8.606;2023-03-11T13:25:24;5.60;;;2.50;;
4808;SDS011;2418;49.930;8.606;2023-03-11T13:27:50;1.55;;;1.45;;
4808;SDS011;2418;49.930;8.606;2023-03-11T13:30:21;1.10;;;1.00;;
4808;SDS011;2418;49.930;8.606;2023-03-11T13:32:54;3.30;;;1.00;;
4808;SDS011;2418;49.930;8.606;2023-03-11T13:35:44;2.20;;;1.02;;
4808;SDS011;2418;49.930;8.606;2023-03-11T13:40:43;2.05;;;1.20;;
4808;SDS011;2418;49.930;8.606;2023-03-11T13:43:11;5.30;;;1.50;;
4808;SDS011;2418;49.930;8.606;2023-03-11T13:45:39;6.15;;;1.52;;
4808;SDS011;2418;49.930;8.606;2023-03-11T13:48:10;10.67;;;1.60;;
4808;SDS011;2418;49.930;8.606;2023-03-11T13:50:46;2.40;;;1.20;;
4808;SDS011;2418;49.930;8.606;2023-03-11T13:53:19;1.85;;;1.20;;
4808;SDS011;2418;49.930;8.606;2023-03-11T13:55:47;1.70;;;1.20;;
4808;SDS011;2418;49.930;8.606;2023-03-11T13:58:16;6.03;;;1.40;;
4808;SDS011;2418;49.930;8.606;2023-03-11T14:00:50;1.45;;;1.40;;
4808;SDS011;2418;49.930;8.606;2023-03-11T14:03:18;2.60;;;0.90;;
4808;SDS011;2418;49.930;8.606;2023-03-11T14:05:47;2.70;;;1.20;;
4808;SDS011;2418;49.930;8.606;2023-03-11T14:08:18;1.80;;;1.10;;
4808;SDS011;2418;49.930;8.606;2023-03-11T14:13:20;7.32;;;1.40;;
4808;SDS011;2418;49.930;8.606;2023-03-11T14:15:50;1.10;;;1.00;;
4808;SDS011;2418;49.930;8.606;2023-03-11T14:18:30;2.60;;;1.45;;
4808;SDS011;2418;49.930;8.606;2023-03-11T14:20:57;1.42;;;1.05;;
4808;SDS011;2418;49.930;8.606;2023-03-11T14:23:26;2.67;;;1.38;;
4808;SDS011;2418;49.930;8.606;2023-03-11T14:25:58;1.40;;;1.10;;
4808;SDS011;2418;49.930;8.606;2023-03-11T14:28:24;1.92;;;0.85;;
4808;SDS011;2418;49.930;8.606;2023-03-11T14:30:56;2.10;;;2.00;;
4808;SDS011;2418;49.930;8.606;2023-03-11T14:33:22;1.85;;;1.02;;
4808;SDS011;2418;49.930;8.606;2023-03-11T14:35:55;1.10;;;1.10;;
4808;SDS011;2418;49.930;8.606;2023-03-11T14:38:23;3.55;;;0.80;;
4808;SDS011;2418;49.930;8.606;2023-03-11T14:40:49;2.20;;;0.90;;
4808;SDS011;2418;49.930;8.606;2023-03-11T14:43:18;4.15;;;1.25;;
4808;SDS011;2418;49.930;8.606;2023-03-11T14:45:45;1.73;;;1.63;;
4808;SDS011;2418;49.930;8.606;2023-03-11T14:48:13;1.70;;;1.60;;
4808;SDS011;2418;49.930;8.606;2023-03-11T14:50:42;3.10;;;1.50;;
4808;SDS011;2418;49.930;8.606;2023-03-11T14:58:28;2.28;;;1.33;;
4808;SDS011;2418;49.930;8.606;2023-03-11T15:03:28;2.03;;;1.08;;
4808;SDS011;2418;49.930;8.606;2023-03-11T15:05:58;3.00;;;1.10;;
4808;SDS011;2418;49.930;8.606;2023-03-11T15:08:28;2.88;;;0.80;;
4808;SDS011;2418;49.930;8.606;2023-03-11T15:11:17;1.95;;;1.00;;
4808;SDS011;2418;49.930;8.606;2023-03-11T15:13:44;1.92;;;1.20;;
4808;SDS011;2418;49.930;8.606;2023-03-11T15:16:22;6.03;;;1.20;;
4808;SDS011;2418;49.930;8.606;2023-03-11T15:18:48;2.10;;;1.00;;
4808;SDS011;2418;49.930;8.606;2023-03-11T15:21:15;3.30;;;0.97;;
4808;SDS011;2418;49.930;8.606;2023-03-11T15:23:46;7.90;;;1.10;;
4808;SDS011;2418;49.930;8.606;2023-03-11T15:26:29;5.65;;;0.85;;
4808;SDS011;2418;49.930;8.606;2023-03-11T15:28:59;2.20;;;1.00;;
4808;SDS011;2418;49.930;8.606;2023-03-11T15:31:35;5.70;;;1.30;;
4808;SDS011;2418;49.930;8.606;2023-03-11T15:36:38;2.70;;;1.10;;
4808;SDS011;2418;49.930;8.606;2023-03-11T15:41:33;4.25;;;1.10;;
4808;SDS011;2418;49.930;8.606;2023-03-11T15:43:59;3.65;;;1.40;;
4808;SDS011;2418;49.930;8.606;2023-03-11T15:46:27;2.53;;;1.10;;
4808;SDS011;2418;49.930;8.606;2023-03-11T15:48:53;1.80;;;1.00;;
4808;SDS011;2418;49.930;8.606;2023-03-11T15:51:19;2.20;;;1.17;;
4808;SDS011;2418;49.930;8.606;2023-03-11T15:53:45;2.60;;;0.80;;
4808;SDS011;2418;49.930;8.606;2023-03-11T15:56:13;2.03;;;1.00;;
4808;SDS011;2418;49.930;8.606;2023-03-11T15:58:42;1.30;;;1.00;;
4808;SDS011;2418;49.930;8.606;2023-03-11T16:01:08;1.70;;;1.20;;
4808;SDS011;2418;49.930;8.606;2023-03-11T16:03:34;1.40;;;1.30;;
4808;SDS011;2418;49.930;8.606;2023-03-11T16:06:02;3.95;;;1.17;;
4808;SDS011;2418;49.930;8.606;2023-03-11T16:08:28;2.75;;;1.20;;
4808;SDS011;2418;49.930;8.606;2023-03-11T16:10:54;3.40;;;0.90;;
4808;SDS011;2418;49.930;8.606;2023-03-11T16:13:21;4.32;;;0.82;;
4808;SDS011;2418;49.930;8.606;2023-03-11T16:15:47;3.17;;;1.45;;
4808;SDS011;2418;49.930;8.606;2023-03-11T16:18:13;1.67;;;1.00;;
4808;SDS011;2418;49.930;8.606;2023-03-11T16:20:40;3.07;;;1.17;;
4808;SDS011;2418;49.930;8.606;2023-03-11T16:23:29;1.42;;;1.33;;
4808;SDS011;2418;49.930;8.606;2023-03-11T16:25:57;2.75;;;1.13;;
4808;SDS011;2418;49.930;8.606;2023-03-11T16:28:24;6.50;;;1.40;;
4808;SDS011;2418;49.930;8.606;2023-03-11T16:30:50;5.50;;;1.02;;
4808;SDS011;2418;49.930;8.606;2023-03-11T16:33:16;1.80;;;1.02;;
4808;SDS011;2418;49.930;8.606;2023-03-11T16:35:42;2.60;;;1.00;;
4808;SDS011;2418;49.930;8.606;2023-03-11T16:38:08;2.45;;;1.00;;
4808;SDS011;2418;49.930;8.606;2023-03-11T16:40:36;4.32;;;1.30;;
4808;SDS011;2418;49.930;8.606;2023-03-11T16:43:03;4.70;;;1.23;;
4808;SDS011;2418;49.930;8.606;2023-03-11T16:45:29;1.80;;;1.40;;
4808;SDS011;2418;49.930;8.606;2023-03-11T16:47:56;2.33;;;1.10;;
4808;SDS011;2418;49.930;8.606;2023-03-11T16:50:22;1.88;;;1.23;;